sensor_id;sensor_type;location;lat;lon;timestamp;P1;durP1;ratioP1;P2;durP2;ratioP2
52294;SDS011;38243;53.212;6.574;2023-05-27T00:00:01;3.80;;;1.63;;
52294;SDS011;38243;53.212;6.574;2023-05-27T00:02:27;3.25;;;1.77;;
52294;SDS011;38243;53.212;6.574;2023-05-27T00:04:53;4.75;;;1.73;;
52294;SDS011;38243;53.212;6.574;2023-05-27T00:07:19;5.03;;;1.92;;
52294;SDS011;38243;53.212;6.574;2023-05-27T00:09:45;4.43;;;1.63;;
52294;SDS011;38243;53.212;6.574;2023-05-27T00:12:11;3.43;;;1.60;;
52294;SDS011;38243;53.212;6.574;2023-05-27T00:14:37;5.13;;;1.80;;
52294;SDS011;38243;53.212;6.574;2023-05-27T00:17:02;4.40;;;1.77;;
52294;SDS011;38243;53.212;6.574;2023-05-27T00:19:29;4.28;;;1.90;;
52294;SDS011;38243;53.212;6.574;2023-05-27T00:21:55;5.47;;;2.00;;
52294;SDS011;38243;53.212;6.574;2023-05-27T00:24:22;4.63;;;1.70;;
52294;SDS011;38243;53.212;6.574;2023-05-27T00:26:48;5.40;;;1.88;;
52294;SDS011;38243;53.212;6.574;2023-05-27T00:29:15;4.18;;;1.90;;
52294;SDS011;38243;53.212;6.574;2023-05-27T00:31:42;3.53;;;1.73;;
52294;SDS011;38243;53.212;6.574;2023-05-27T00:34:10;3.78;;;1.90;;
52294;SDS011;38243;53.212;6.574;2023-05-27T00:36:36;3.85;;;1.60;;
52294;SDS011;38243;53.212;6.574;2023-05-27T00:39:02;4.80;;;1.67;;
52294;SDS011;38243;53.212;6.574;2023-05-27T00:41:28;2.90;;;1.50;;
52294;SDS011;38243;53.212;6.574;2023-05-27T00:43:55;5.88;;;1.85;;
52294;SDS011;38243;53.212;6.574;2023-05-27T00:46:21;5.43;;;1.83;;
52294;SDS011;38243;53.212;6.574;2023-05-27T00:48:47;4.40;;;1.87;;
52294;SDS011;38243;53.212;6.574;2023-05-27T00:51:14;4.85;;;1.88;;
52294;SDS011;38243;53.212;6.574;2023-05-27T00:53:41;4.88;;;1.80;;
52294;SDS011;38243;53.212;6.574;2023-05-27T00:56:08;5.28;;;2.10;;
52294;SDS011;38243;53.212;6.574;2023-05-27T00:58:35;4.57;;;1.88;;
52294;SDS011;38243;53.212;6.574;2023-05-27T01:01:02;4.70;;;1.80;;
52294;SDS011;38243;53.212;6.574;2023-05-27T01:03:28;4.00;;;1.87;;
52294;SDS011;38243;53.212;6.574;2023-05-27T01:09:11;4.63;;;1.65;;
52294;SDS011;38243;53.212;6.574;2023-05-27T01:11:56;5.82;;;2.20;;
52294;SDS011;38243;53.212;6.574;2023-05-27T01:14:43;4.15;;;1.60;;
52294;SDS011;38243;53.212;6.574;2023-05-27T01:17:10;5.60;;;1.85;;
52294;SDS011;38243;53.212;6.574;2023-05-27T01:19:41;5.18;;;1.65;;
52294;SDS011;38243;53.212;6.574;2023-05-27T01:22:11;5.37;;;1.83;;
52294;SDS011;38243;53.212;6.574;2023-05-27T01:24:38;5.72;;;1.80;;
52294;SDS011;38243;53.212;6.574;2023-05-27T01:27:07;4.10;;;1.90;;
52294;SDS011;38243;53.212;6.574;2023-05-27T01:29:33;4.63;;;1.90;;
52294;SDS011;38243;53.212;6.574;2023-05-27T01:37:25;4.57;;;1.80;;
52294;SDS011;38243;53.212;6.574;2023-05-27T01:39:55;4.90;;;2.13;;
52294;SDS011;38243;53.212;6.574;2023-05-27T01:42:21;4.70;;;1.80;;
52294;SDS011;38243;53.212;6.574;2023-05-27T01:44:48;5.07;;;1.92;;
52294;SDS011;38243;53.212;6.574;2023-05-27T01:47:14;4.47;;;1.80;;
52294;SDS011;38243;53.212;6.574;2023-05-27T01:49:40;4.70;;;1.70;;
52294;SDS011;38243;53.212;6.574;2023-05-27T01:52:06;5.55;;;2.00;;
52294;SDS011;38243;53.212;6.574;2023-05-27T01:54:33;3.67;;;1.67;;
52294;SDS011;38243;53.212;6.574;2023-05-27T01:56:59;4.50;;;1.70;;
52294;SDS011;38243;53.212;6.574;2023-05-27T01:59:25;6.03;;;1.88;;
52294;SDS011;38243;53.212;6.574;2023-05-27T02:01:51;5.10;;;1.70;;
52294;SDS011;38243;53.212;6.574;2023-05-27T02:04:17;4.63;;;1.87;;
52294;SDS011;38243;53.212;6.574;2023-05-27T02:06:43;4.43;;;1.67;;
52294;SDS011;38243;53.212;6.574;2023-05-27T02:09:09;4.10;;;1.70;;
52294;SDS011;38243;53.212;6.574;2023-05-27T02:11:36;4.65;;;1.80;;
52294;SDS011;38243;53.212;6.574;2023-05-27T02:14:02;5.45;;;1.80;;
52294;SDS011;38243;53.212;6.574;2023-05-27T02:16:28;4.85;;;1.90;;
52294;SDS011;38243;53.212;6.574;2023-05-27T02:18:55;5.78;;;1.75;;
52294;SDS011;38243;53.212;6.574;2023-05-27T02:21:21;5.10;;;1.60;;
52294;SDS011;38243;53.212;6.574;2023-05-27T02:23:47;3.97;;;1.60;;
52294;SDS011;38243;53.212;6.574;2023-05-27T02:26:13;4.00;;;1.50;;
52294;SDS011;38243;53.212;6.574;2023-05-27T02:28:38;5.38;;;1.92;;
52294;SDS011;38243;53.212;6.574;2023-05-27T02:31:04;4.85;;;1.60;;
52294;SDS011;38243;53.212;6.574;2023-05-27T02:33:30;5.43;;;1.70;;
52294;SDS011;38243;53.212;6.574;2023-05-27T02:35:56;5.20;;;1.90;;
52294;SDS011;38243;53.212;6.574;2023-05-27T02:38:22;4.50;;;1.63;;
52294;SDS011;38243;53.212;6.574;2023-05-27T02:40:47;3.95;;;1.42;;
52294;SDS011;38243;53.212;6.574;2023-05-27T02:43:13;5.83;;;1.70;;
52294;SDS011;38243;53.212;6.574;2023-05-27T02:45:39;5.32;;;1.73;;
52294;SDS011;38243;53.212;6.574;2023-05-27T02:48:05;4.95;;;1.90;;
52294;SDS011;38243;53.212;6.574;2023-05-27T02:50:31;5.75;;;1.63;;
52294;SDS011;38243;53.212;6.574;2023-05-27T02:52:56;4.75;;;1.70;;
52294;SDS011;38243;53.212;6.574;2023-05-27T02:55:22;3.42;;;1.42;;
52294;SDS011;38243;53.212;6.574;2023-05-27T02:57:48;5.10;;;1.73;;
52294;SDS011;38243;53.212;6.574;2023-05-27T03:00:14;5.20;;;1.80;;
52294;SDS011;38243;53.212;6.574;2023-05-27T03:02:40;4.55;;;1.75;;
52294;SDS011;38243;53.212;6.574;2023-05-27T03:05:06;3.72;;;1.48;;
52294;SDS011;38243;53.212;6.574;2023-05-27T03:07:32;5.85;;;1.92;;
52294;SDS011;38243;53.212;6.574;2023-05-27T03:09:57;4.87;;;1.70;;
52294;SDS011;38243;53.212;6.574;2023-05-27T03:12:23;6.28;;;1.80;;
52294;SDS011;38243;53.212;6.574;2023-05-27T03:14:49;5.60;;;1.80;;
52294;SDS011;38243;53.212;6.574;2023-05-27T03:17:15;4.60;;;1.63;;
52294;SDS011;38243;53.212;6.574;2023-05-27T03:19:44;4.53;;;1.73;;
52294;SDS011;38243;53.212;6.574;2023-05-27T03:22:10;3.65;;;1.85;;
52294;SDS011;38243;53.212;6.574;2023-05-27T03:24:37;5.57;;;1.52;;
52294;SDS011;38243;53.212;6.574;2023-05-27T03:27:02;4.30;;;1.53;;
52294;SDS011;38243;53.212;6.574;2023-05-27T03:29:28;5.45;;;1.80;;
52294;SDS011;38243;53.212;6.574;2023-05-27T03:31:54;5.32;;;1.75;;
52294;SDS011;38243;53.212;6.574;2023-05-27T03:34:20;5.37;;;1.70;;
52294;SDS011;38243;53.212;6.574;2023-05-27T03:36:46;5.38;;;1.60;;
52294;SDS011;38243;53.212;6.574;2023-05-27T03:39:12;4.53;;;1.73;;
52294;SDS011;38243;53.212;6.574;2023-05-27T03:41:38;4.00;;;1.70;;
52294;SDS011;38243;53.212;6.574;2023-05-27T03:44:04;4.57;;;1.85;;
52294;SDS011;38243;53.212;6.574;2023-05-27T03:46:29;5.13;;;1.83;;
52294;SDS011;38243;53.212;6.574;2023-05-27T03:48:55;5.07;;;1.60;;
52294;SDS011;38243;53.212;6.574;2023-05-27T03:51:21;4.43;;;1.77;;
52294;SDS011;38243;53.212;6.574;2023-05-27T03:53:47;6.10;;;2.10;;
52294;SDS011;38243;53.212;6.574;2023-05-27T03:56:13;4.47;;;1.70;;
52294;SDS011;38243;53.212;6.574;2023-05-27T03:58:38;4.73;;;1.80;;
52294;SDS011;38243;53.212;6.574;2023-05-27T04:01:04;5.72;;;1.65;;
52294;SDS011;38243;53.212;6.574;2023-05-27T04:03:31;6.57;;;2.05;;
52294;SDS011;38243;53.212;6.574;2023-05-27T04:05:57;4.22;;;1.73;;
52294;SDS011;38243;53.212;6.574;2023-05-27T04:08:23;4.97;;;1.70;;
52294;SDS011;38243;53.212;6.574;2023-05-27T04:10:52;5.38;;;1.92;;
52294;SDS011;38243;53.212;6.574;2023-05-27T04:13:18;3.97;;;1.70;;
52294;SDS011;38243;53.212;6.574;2023-05-27T04:15:44;3.58;;;1.63;;
52294;SDS011;38243;53.212;6.574;2023-05-27T04:18:10;4.90;;;1.70;;
52294;SDS011;38243;53.212;6.574;2023-05-27T04:20:39;3.97;;;1.67;;
52294;SDS011;38243;53.212;6.574;2023-05-27T04:23:07;5.67;;;2.00;;
52294;SDS011;38243;53.212;6.574;2023-05-27T04:25:33;5.15;;;2.10;;
52294;SDS011;38243;53.212;6.574;2023-05-27T04:28:02;5.07;;;1.65;;
52294;SDS011;38243;53.212;6.574;2023-05-27T04:30:31;5.22;;;1.73;;
52294;SDS011;38243;53.212;6.574;2023-05-27T04:32:58;4.93;;;1.93;;
52294;SDS011;38243;53.212;6.574;2023-05-27T04:35:25;6.70;;;2.03;;
52294;SDS011;38243;53.212;6.574;2023-05-27T04:37:51;4.53;;;1.75;;
52294;SDS011;38243;53.212;6.574;2023-05-27T04:40:17;6.35;;;1.77;;
52294;SDS011;38243;53.212;6.574;2023-05-27T04:42:42;5.07;;;1.73;;
52294;SDS011;38243;53.212;6.574;2023-05-27T04:45:09;4.15;;;1.70;;
52294;SDS011;38243;53.212;6.574;2023-05-27T04:47:38;5.37;;;1.83;;
52294;SDS011;38243;53.212;6.574;2023-05-27T04:50:09;5.18;;;1.85;;
52294;SDS011;38243;53.212;6.574;2023-05-27T04:52:36;7.53;;;1.90;;
52294;SDS011;38243;53.212;6.574;2023-05-27T04:55:06;5.83;;;2.10;;
52294;SDS011;38243;53.212;6.574;2023-05-27T04:57:33;5.60;;;1.90;;
52294;SDS011;38243;53.212;6.574;2023-05-27T05:00:02;4.88;;;1.95;;
52294;SDS011;38243;53.212;6.574;2023-05-27T05:02:33;5.32;;;1.88;;
52294;SDS011;38243;53.212;6.574;2023-05-27T05:05:03;7.70;;;2.08;;
52294;SDS011;38243;53.212;6.574;2023-05-27T05:07:30;5.18;;;1.83;;
52294;SDS011;38243;53.212;6.574;2023-05-27T05:09:57;6.47;;;1.98;;
52294;SDS011;38243;53.212;6.574;2023-05-27T05:12:23;3.70;;;1.85;;
52294;SDS011;38243;53.212;6.574;2023-05-27T05:14:50;5.35;;;1.92;;
52294;SDS011;38243;53.212;6.574;2023-05-27T05:17:16;6.43;;;1.80;;
52294;SDS011;38243;53.212;6.574;2023-05-27T05:19:43;6.60;;;1.85;;
52294;SDS011;38243;53.212;6.574;2023-05-27T05:22:10;4.55;;;2.00;;
52294;SDS011;38243;53.212;6.574;2023-05-27T05:24:38;5.30;;;2.20;;
52294;SDS011;38243;53.212;6.574;2023-05-27T05:27:05;5.82;;;2.05;;
52294;SDS011;38243;53.212;6.574;2023-05-27T05:29:32;6.17;;;2.20;;
52294;SDS011;38243;53.212;6.574;2023-05-27T05:31:58;5.20;;;1.70;;
52294;SDS011;38243;53.212;6.574;2023-05-27T05:34:23;5.27;;;1.93;;
52294;SDS011;38243;53.212;6.574;2023-05-27T05:36:52;5.50;;;1.83;;
52294;SDS011;38243;53.212;6.574;2023-05-27T05:39:18;4.33;;;1.80;;
52294;SDS011;38243;53.212;6.574;2023-05-27T05:41:45;5.00;;;1.95;;
52294;SDS011;38243;53.212;6.574;2023-05-27T05:44:11;7.05;;;2.50;;
52294;SDS011;38243;53.212;6.574;2023-05-27T05:46:38;6.57;;;1.95;;
52294;SDS011;38243;53.212;6.574;2023-05-27T05:49:04;5.50;;;1.70;;
52294;SDS011;38243;53.212;6.574;2023-05-27T05:51:30;5.07;;;1.50;;
52294;SDS011;38243;53.212;6.574;2023-05-27T05:53:56;5.03;;;1.85;;
52294;SDS011;38243;53.212;6.574;2023-05-27T05:56:22;5.18;;;1.90;;
52294;SDS011;38243;53.212;6.574;2023-05-27T05:58:48;4.75;;;2.00;;
52294;SDS011;38243;53.212;6.574;2023-05-27T06:01:15;4.83;;;2.23;;
52294;SDS011;38243;53.212;6.574;2023-05-27T06:03:41;5.57;;;2.15;;
52294;SDS011;38243;53.212;6.574;2023-05-27T06:06:06;5.27;;;1.87;;
52294;SDS011;38243;53.212;6.574;2023-05-27T06:08:33;6.90;;;2.07;;
52294;SDS011;38243;53.212;6.574;2023-05-27T06:10:58;5.43;;;1.77;;
52294;SDS011;38243;53.212;6.574;2023-05-27T06:13:24;6.00;;;2.30;;
52294;SDS011;38243;53.212;6.574;2023-05-27T06:15:50;5.95;;;2.20;;
52294;SDS011;38243;53.212;6.574;2023-05-27T06:18:16;5.53;;;1.90;;
52294;SDS011;38243;53.212;6.574;2023-05-27T06:20:41;9.63;;;3.03;;
52294;SDS011;38243;53.212;6.574;2023-05-27T06:23:07;9.18;;;2.70;;
52294;SDS011;38243;53.212;6.574;2023-05-27T06:25:33;11.53;;;3.40;;
52294;SDS011;38243;53.212;6.574;2023-05-27T06:27:59;11.75;;;3.25;;
52294;SDS011;38243;53.212;6.574;2023-05-27T06:30:25;12.23;;;3.10;;
52294;SDS011;38243;53.212;6.574;2023-05-27T06:32:51;9.27;;;2.97;;
52294;SDS011;38243;53.212;6.574;2023-05-27T06:35:17;7.85;;;2.83;;
52294;SDS011;38243;53.212;6.574;2023-05-27T06:37:43;11.23;;;2.80;;
52294;SDS011;38243;53.212;6.574;2023-05-27T06:40:09;8.20;;;2.85;;
52294;SDS011;38243;53.212;6.574;2023-05-27T06:42:36;10.70;;;3.50;;
52294;SDS011;38243;53.212;6.574;2023-05-27T06:45:02;9.63;;;2.67;;
52294;SDS011;38243;53.212;6.574;2023-05-27T06:47:28;11.15;;;3.10;;
52294;SDS011;38243;53.212;6.574;2023-05-27T06:49:54;12.75;;;3.17;;
52294;SDS011;38243;53.212;6.574;2023-05-27T06:52:20;13.30;;;3.37;;
52294;SDS011;38243;53.212;6.574;2023-05-27T06:54:46;12.52;;;3.42;;
52294;SDS011;38243;53.212;6.574;2023-05-27T06:57:12;12.93;;;3.20;;
52294;SDS011;38243;53.212;6.574;2023-05-27T06:59:38;11.10;;;3.40;;
52294;SDS011;38243;53.212;6.574;2023-05-27T07:02:04;9.95;;;3.30;;
52294;SDS011;38243;53.212;6.574;2023-05-27T07:04:30;13.48;;;3.65;;
52294;SDS011;38243;53.212;6.574;2023-05-27T07:06:56;10.25;;;2.90;;
52294;SDS011;38243;53.212;6.574;2023-05-27T07:09:21;11.65;;;3.00;;
52294;SDS011;38243;53.212;6.574;2023-05-27T07:11:47;10.03;;;3.23;;
52294;SDS011;38243;53.212;6.574;2023-05-27T07:14:13;11.20;;;3.28;;
52294;SDS011;38243;53.212;6.574;2023-05-27T07:16:39;11.45;;;3.17;;
52294;SDS011;38243;53.212;6.574;2023-05-27T07:19:05;11.52;;;3.50;;
52294;SDS011;38243;53.212;6.574;2023-05-27T07:21:32;10.38;;;3.38;;
52294;SDS011;38243;53.212;6.574;2023-05-27T07:23:57;10.40;;;3.20;;
52294;SDS011;38243;53.212;6.574;2023-05-27T07:26:28;12.32;;;3.30;;
52294;SDS011;38243;53.212;6.574;2023-05-27T07:28:57;12.80;;;3.10;;
52294;SDS011;38243;53.212;6.574;2023-05-27T07:31:27;13.32;;;3.45;;
52294;SDS011;38243;53.212;6.574;2023-05-27T07:33:53;13.57;;;3.38;;
52294;SDS011;38243;53.212;6.574;2023-05-27T07:36:19;9.18;;;3.00;;
52294;SDS011;38243;53.212;6.574;2023-05-27T07:38:45;9.95;;;3.28;;
52294;SDS011;38243;53.212;6.574;2023-05-27T07:41:11;11.07;;;3.20;;
52294;SDS011;38243;53.212;6.574;2023-05-27T07:43:38;9.23;;;2.85;;
52294;SDS011;38243;53.212;6.574;2023-05-27T07:46:04;8.13;;;3.05;;
52294;SDS011;38243;53.212;6.574;2023-05-27T07:48:29;9.87;;;3.00;;
52294;SDS011;38243;53.212;6.574;2023-05-27T07:50:55;11.68;;;3.45;;
52294;SDS011;38243;53.212;6.574;2023-05-27T07:53:21;11.17;;;4.00;;
52294;SDS011;38243;53.212;6.574;2023-05-27T07:55:47;10.27;;;3.30;;
52294;SDS011;38243;53.212;6.574;2023-05-27T07:58:13;11.63;;;3.50;;
52294;SDS011;38243;53.212;6.574;2023-05-27T08:00:39;16.57;;;4.50;;
52294;SDS011;38243;53.212;6.574;2023-05-27T08:03:05;11.27;;;3.47;;
52294;SDS011;38243;53.212;6.574;2023-05-27T08:05:33;13.25;;;4.13;;
52294;SDS011;38243;53.212;6.574;2023-05-27T08:07:59;11.07;;;3.47;;
52294;SDS011;38243;53.212;6.574;2023-05-27T08:10:25;10.95;;;3.58;;
52294;SDS011;38243;53.212;6.574;2023-05-27T08:12:51;11.20;;;3.42;;
52294;SDS011;38243;53.212;6.574;2023-05-27T08:15:17;10.20;;;3.20;;
52294;SDS011;38243;53.212;6.574;2023-05-27T08:17:43;8.60;;;2.90;;
52294;SDS011;38243;53.212;6.574;2023-05-27T08:20:09;10.70;;;3.20;;
52294;SDS011;38243;53.212;6.574;2023-05-27T08:22:36;9.73;;;3.10;;
52294;SDS011;38243;53.212;6.574;2023-05-27T08:25:02;12.85;;;3.13;;
52294;SDS011;38243;53.212;6.574;2023-05-27T08:27:45;14.00;;;3.47;;
52294;SDS011;38243;53.212;6.574;2023-05-27T08:30:26;12.15;;;3.50;;
52294;SDS011;38243;53.212;6.574;2023-05-27T08:32:55;13.00;;;3.70;;
52294;SDS011;38243;53.212;6.574;2023-05-27T08:35:22;11.00;;;3.92;;
52294;SDS011;38243;53.212;6.574;2023-05-27T08:37:48;13.05;;;4.25;;
52294;SDS011;38243;53.212;6.574;2023-05-27T08:40:14;11.93;;;3.47;;
52294;SDS011;38243;53.212;6.574;2023-05-27T08:42:41;11.73;;;3.38;;
52294;SDS011;38243;53.212;6.574;2023-05-27T08:45:08;13.02;;;3.97;;
52294;SDS011;38243;53.212;6.574;2023-05-27T08:47:34;12.27;;;3.53;;
52294;SDS011;38243;53.212;6.574;2023-05-27T08:50:01;14.73;;;4.38;;
52294;SDS011;38243;53.212;6.574;2023-05-27T08:52:27;12.82;;;4.22;;
52294;SDS011;38243;53.212;6.574;2023-05-27T08:54:57;9.32;;;3.22;;
52294;SDS011;38243;53.212;6.574;2023-05-27T08:57:29;9.88;;;3.47;;
52294;SDS011;38243;53.212;6.574;2023-05-27T08:59:56;12.15;;;3.70;;
52294;SDS011;38243;53.212;6.574;2023-05-27T09:02:22;9.17;;;3.07;;
52294;SDS011;38243;53.212;6.574;2023-05-27T09:04:49;9.38;;;3.10;;
52294;SDS011;38243;53.212;6.574;2023-05-27T09:07:15;8.20;;;2.70;;
52294;SDS011;38243;53.212;6.574;2023-05-27T09:09:41;9.93;;;3.40;;
52294;SDS011;38243;53.212;6.574;2023-05-27T09:12:08;8.85;;;2.90;;
52294;SDS011;38243;53.212;6.574;2023-05-27T09:14:34;10.93;;;3.40;;
52294;SDS011;38243;53.212;6.574;2023-05-27T09:17:07;10.65;;;3.20;;
52294;SDS011;38243;53.212;6.574;2023-05-27T09:19:33;8.68;;;2.60;;
52294;SDS011;38243;53.212;6.574;2023-05-27T09:22:00;7.15;;;2.80;;
52294;SDS011;38243;53.212;6.574;2023-05-27T09:24:26;7.22;;;2.75;;
52294;SDS011;38243;53.212;6.574;2023-05-27T09:26:52;7.03;;;2.78;;
52294;SDS011;38243;53.212;6.574;2023-05-27T09:29:19;6.32;;;2.40;;
52294;SDS011;38243;53.212;6.574;2023-05-27T09:31:45;7.03;;;2.40;;
52294;SDS011;38243;53.212;6.574;2023-05-27T09:34:12;8.67;;;2.67;;
52294;SDS011;38243;53.212;6.574;2023-05-27T09:36:42;10.43;;;2.85;;
52294;SDS011;38243;53.212;6.574;2023-05-27T09:39:13;12.20;;;2.80;;
52294;SDS011;38243;53.212;6.574;2023-05-27T09:41:40;7.55;;;2.63;;
52294;SDS011;38243;53.212;6.574;2023-05-27T09:44:06;7.28;;;2.63;;
52294;SDS011;38243;53.212;6.574;2023-05-27T09:46:33;7.57;;;2.45;;
52294;SDS011;38243;53.212;6.574;2023-05-27T09:49:00;6.63;;;2.53;;
52294;SDS011;38243;53.212;6.574;2023-05-27T09:51:27;6.70;;;2.20;;
52294;SDS011;38243;53.212;6.574;2023-05-27T09:53:54;7.50;;;2.30;;
52294;SDS011;38243;53.212;6.574;2023-05-27T09:56:24;8.13;;;2.58;;
52294;SDS011;38243;53.212;6.574;2023-05-27T09:58:52;8.02;;;2.55;;
52294;SDS011;38243;53.212;6.574;2023-05-27T10:01:21;6.40;;;2.30;;
52294;SDS011;38243;53.212;6.574;2023-05-27T10:03:53;6.90;;;2.67;;
52294;SDS011;38243;53.212;6.574;2023-05-27T10:06:19;6.35;;;2.05;;
52294;SDS011;38243;53.212;6.574;2023-05-27T10:08:46;5.38;;;2.20;;
52294;SDS011;38243;53.212;6.574;2023-05-27T10:11:12;6.55;;;2.22;;
52294;SDS011;38243;53.212;6.574;2023-05-27T10:13:38;5.53;;;2.30;;
52294;SDS011;38243;53.212;6.574;2023-05-27T10:16:05;4.50;;;2.20;;
52294;SDS011;38243;53.212;6.574;2023-05-27T10:18:31;7.97;;;2.47;;
52294;SDS011;38243;53.212;6.574;2023-05-27T10:20:59;5.43;;;2.10;;
52294;SDS011;38243;53.212;6.574;2023-05-27T10:23:28;6.70;;;2.40;;
52294;SDS011;38243;53.212;6.574;2023-05-27T10:28:38;6.35;;;2.40;;
52294;SDS011;38243;53.212;6.574;2023-05-27T10:31:15;6.38;;;2.42;;
52294;SDS011;38243;53.212;6.574;2023-05-27T10:33:43;5.00;;;2.23;;
52294;SDS011;38243;53.212;6.574;2023-05-27T10:36:16;6.45;;;2.50;;
52294;SDS011;38243;53.212;6.574;2023-05-27T10:38:56;6.57;;;2.33;;
52294;SDS011;38243;53.212;6.574;2023-05-27T10:41:23;5.22;;;2.17;;
52294;SDS011;38243;53.212;6.574;2023-05-27T10:43:56;5.53;;;2.20;;
52294;SDS011;38243;53.212;6.574;2023-05-27T10:46:22;5.38;;;2.33;;
52294;SDS011;38243;53.212;6.574;2023-05-27T10:48:48;5.53;;;1.90;;
52294;SDS011;38243;53.212;6.574;2023-05-27T10:51:14;5.50;;;2.08;;
52294;SDS011;38243;53.212;6.574;2023-05-27T10:53:40;6.75;;;2.33;;
52294;SDS011;38243;53.212;6.574;2023-05-27T10:56:06;4.93;;;1.95;;
52294;SDS011;38243;53.212;6.574;2023-05-27T10:58:34;5.37;;;2.27;;
52294;SDS011;38243;53.212;6.574;2023-05-27T11:01:06;6.55;;;2.17;;
52294;SDS011;38243;53.212;6.574;2023-05-27T11:03:41;4.88;;;2.00;;
52294;SDS011;38243;53.212;6.574;2023-05-27T11:06:11;6.22;;;2.40;;
52294;SDS011;38243;53.212;6.574;2023-05-27T11:08:44;4.75;;;2.00;;
52294;SDS011;38243;53.212;6.574;2023-05-27T11:11:10;6.70;;;2.37;;
52294;SDS011;38243;53.212;6.574;2023-05-27T11:13:41;6.85;;;2.17;;
52294;SDS011;38243;53.212;6.574;2023-05-27T11:16:08;5.70;;;2.22;;
52294;SDS011;38243;53.212;6.574;2023-05-27T11:21:00;6.05;;;2.50;;
52294;SDS011;38243;53.212;6.574;2023-05-27T11:23:34;7.20;;;2.75;;
52294;SDS011;38243;53.212;6.574;2023-05-27T11:26:01;6.95;;;2.50;;
52294;SDS011;38243;53.212;6.574;2023-05-27T11:28:27;4.87;;;2.27;;
52294;SDS011;38243;53.212;6.574;2023-05-27T11:31:02;4.85;;;2.40;;
52294;SDS011;38243;53.212;6.574;2023-05-27T11:33:34;5.80;;;2.15;;
52294;SDS011;38243;53.212;6.574;2023-05-27T11:36:04;5.28;;;2.40;;
52294;SDS011;38243;53.212;6.574;2023-05-27T11:38:31;2.95;;;2.00;;
52294;SDS011;38243;53.212;6.574;2023-05-27T11:41:07;7.70;;;2.25;;
52294;SDS011;38243;53.212;6.574;2023-05-27T11:43:33;6.55;;;2.35;;
52294;SDS011;38243;53.212;6.574;2023-05-27T11:46:02;6.13;;;2.33;;
52294;SDS011;38243;53.212;6.574;2023-05-27T11:48:28;5.88;;;2.25;;
52294;SDS011;38243;53.212;6.574;2023-05-27T11:50:54;6.85;;;2.47;;
52294;SDS011;38243;53.212;6.574;2023-05-27T11:53:20;4.27;;;2.07;;
52294;SDS011;38243;53.212;6.574;2023-05-27T11:55:46;6.13;;;2.38;;
52294;SDS011;38243;53.212;6.574;2023-05-27T11:58:11;6.87;;;2.43;;
52294;SDS011;38243;53.212;6.574;2023-05-27T12:00:37;7.25;;;2.35;;
52294;SDS011;38243;53.212;6.574;2023-05-27T12:03:03;5.77;;;2.00;;
52294;SDS011;38243;53.212;6.574;2023-05-27T12:05:28;6.33;;;2.43;;
52294;SDS011;38243;53.212;6.574;2023-05-27T12:07:54;4.65;;;2.00;;
52294;SDS011;38243;53.212;6.574;2023-05-27T12:10:20;5.50;;;2.57;;
52294;SDS011;38243;53.212;6.574;2023-05-27T12:12:46;6.18;;;2.67;;
52294;SDS011;38243;53.212;6.574;2023-05-27T12:15:12;5.23;;;2.30;;
52294;SDS011;38243;53.212;6.574;2023-05-27T12:17:38;6.30;;;2.30;;
52294;SDS011;38243;53.212;6.574;2023-05-27T12:20:04;5.47;;;2.20;;
52294;SDS011;38243;53.212;6.574;2023-05-27T12:22:31;5.38;;;2.30;;
52294;SDS011;38243;53.212;6.574;2023-05-27T12:24:57;5.03;;;2.13;;
52294;SDS011;38243;53.212;6.574;2023-05-27T12:27:22;4.87;;;2.10;;
52294;SDS011;38243;53.212;6.574;2023-05-27T12:29:48;4.45;;;2.08;;
52294;SDS011;38243;53.212;6.574;2023-05-27T12:32:14;6.15;;;2.40;;
52294;SDS011;38243;53.212;6.574;2023-05-27T12:34:40;5.03;;;2.00;;
52294;SDS011;38243;53.212;6.574;2023-05-27T12:37:06;5.00;;;2.15;;
52294;SDS011;38243;53.212;6.574;2023-05-27T12:39:31;4.93;;;2.23;;
52294;SDS011;38243;53.212;6.574;2023-05-27T12:41:57;5.75;;;2.47;;
52294;SDS011;38243;53.212;6.574;2023-05-27T12:44:23;5.13;;;2.23;;
52294;SDS011;38243;53.212;6.574;2023-05-27T12:46:48;6.13;;;2.40;;
52294;SDS011;38243;53.212;6.574;2023-05-27T12:49:14;4.22;;;2.03;;
52294;SDS011;38243;53.212;6.574;2023-05-27T12:51:40;6.57;;;2.67;;
52294;SDS011;38243;53.212;6.574;2023-05-27T12:54:05;5.30;;;2.10;;
52294;SDS011;38243;53.212;6.574;2023-05-27T12:56:31;5.72;;;2.20;;
52294;SDS011;38243;53.212;6.574;2023-05-27T12:58:57;5.53;;;2.33;;
52294;SDS011;38243;53.212;6.574;2023-05-27T13:01:23;5.18;;;2.15;;
52294;SDS011;38243;53.212;6.574;2023-05-27T13:03:49;7.07;;;2.47;;
52294;SDS011;38243;53.212;6.574;2023-05-27T13:06:16;5.07;;;2.10;;
52294;SDS011;38243;53.212;6.574;2023-05-27T13:08:42;4.65;;;2.20;;
52294;SDS011;38243;53.212;6.574;2023-05-27T13:11:08;6.32;;;2.30;;
52294;SDS011;38243;53.212;6.574;2023-05-27T13:13:34;6.38;;;2.42;;
52294;SDS011;38243;53.212;6.574;2023-05-27T13:15:59;4.80;;;2.20;;
52294;SDS011;38243;53.212;6.574;2023-05-27T13:18:25;5.18;;;2.05;;
52294;SDS011;38243;53.212;6.574;2023-05-27T13:20:51;4.40;;;2.03;;
52294;SDS011;38243;53.212;6.574;2023-05-27T13:23:16;5.35;;;2.25;;
52294;SDS011;38243;53.212;6.574;2023-05-27T13:25:42;4.77;;;2.30;;
52294;SDS011;38243;53.212;6.574;2023-05-27T13:28:08;5.20;;;2.25;;
52294;SDS011;38243;53.212;6.574;2023-05-27T13:30:34;6.13;;;2.08;;
52294;SDS011;38243;53.212;6.574;2023-05-27T13:33:00;5.27;;;2.20;;
52294;SDS011;38243;53.212;6.574;2023-05-27T13:35:26;5.33;;;2.07;;
52294;SDS011;38243;53.212;6.574;2023-05-27T13:37:52;5.75;;;2.35;;
52294;SDS011;38243;53.212;6.574;2023-05-27T13:40:18;5.65;;;2.58;;
52294;SDS011;38243;53.212;6.574;2023-05-27T13:42:44;4.80;;;2.07;;
52294;SDS011;38243;53.212;6.574;2023-05-27T13:45:10;4.63;;;2.25;;
52294;SDS011;38243;53.212;6.574;2023-05-27T13:47:40;5.93;;;2.17;;
52294;SDS011;38243;53.212;6.574;2023-05-27T13:50:07;5.55;;;2.10;;
52294;SDS011;38243;53.212;6.574;2023-05-27T13:52:34;4.88;;;2.30;;
52294;SDS011;38243;53.212;6.574;2023-05-27T13:54:59;5.65;;;2.55;;
52294;SDS011;38243;53.212;6.574;2023-05-27T13:57:26;6.23;;;2.10;;
52294;SDS011;38243;53.212;6.574;2023-05-27T13:59:51;5.40;;;2.13;;
52294;SDS011;38243;53.212;6.574;2023-05-27T14:02:17;6.53;;;2.20;;
52294;SDS011;38243;53.212;6.574;2023-05-27T14:04:43;5.60;;;2.25;;
52294;SDS011;38243;53.212;6.574;2023-05-27T14:07:09;6.80;;;2.33;;
52294;SDS011;38243;53.212;6.574;2023-05-27T14:09:35;6.80;;;2.30;;
52294;SDS011;38243;53.212;6.574;2023-05-27T14:12:00;5.57;;;2.30;;
52294;SDS011;38243;53.212;6.574;2023-05-27T14:14:27;6.97;;;2.63;;
52294;SDS011;38243;53.212;6.574;2023-05-27T14:16:53;4.72;;;2.20;;
52294;SDS011;38243;53.212;6.574;2023-05-27T14:19:18;12.60;;;3.00;;
52294;SDS011;38243;53.212;6.574;2023-05-27T14:21:44;7.78;;;2.67;;
52294;SDS011;38243;53.212;6.574;2023-05-27T14:24:12;4.90;;;2.20;;
52294;SDS011;38243;53.212;6.574;2023-05-27T14:26:38;6.85;;;2.42;;
52294;SDS011;38243;53.212;6.574;2023-05-27T14:29:03;6.57;;;2.40;;
52294;SDS011;38243;53.212;6.574;2023-05-27T14:31:29;6.95;;;3.00;;
52294;SDS011;38243;53.212;6.574;2023-05-27T14:33:55;5.73;;;2.33;;
52294;SDS011;38243;53.212;6.574;2023-05-27T14:36:21;6.80;;;2.30;;
52294;SDS011;38243;53.212;6.574;2023-05-27T14:38:46;5.97;;;2.10;;
52294;SDS011;38243;53.212;6.574;2023-05-27T14:41:12;5.05;;;2.15;;
52294;SDS011;38243;53.212;6.574;2023-05-27T14:43:38;7.57;;;2.07;;
52294;SDS011;38243;53.212;6.574;2023-05-27T14:46:03;6.07;;;2.10;;
52294;SDS011;38243;53.212;6.574;2023-05-27T14:48:29;5.23;;;2.17;;
52294;SDS011;38243;53.212;6.574;2023-05-27T14:50:55;6.03;;;2.10;;
52294;SDS011;38243;53.212;6.574;2023-05-27T14:53:20;7.13;;;2.13;;
52294;SDS011;38243;53.212;6.574;2023-05-27T14:55:46;4.47;;;2.10;;